Time,TemperatureF,DewpointF,PressureIn,WindDirection,WindDirectionDegrees,WindSpeedMPH,WindSpeedGustMPH,Humidity,HourlyPrecipIn,Conditions,Clouds,dailyrainin,SolarRadiationWatts/m^2,SoftwareType,DateUTC
2013-03-01 00:06:00,30.0,4.3,30.32,NNE,20,0.0,0.0,33,0.00,,,0.00,0,Wunderground v.1.15,2013-03-01 07:06:00,
2013-03-01 00:11:00,30.3,4.6,30.33,NNE,20,0.0,0.0,33,0.00,,,0.00,0,Wunderground v.1.15,2013-03-01 07:11:00,
2013-03-01 00:16:00,31.5,6.3,30.32,NNE,20,0.0,0.0,34,0.00,,,0.00,0,Wunderground v.1.15,2013-03-01 07:16:00,
2013-03-01 00:21:00,29.9,4.2,30.32,NNE,20,0.0,0.0,33,0.00,,,0.00,0,Wunderground v.1.15,2013-03-01 07:21:00,
2013-03-01 00:31:00,27.3,4.4,30.34,NNE,20,0.0,0.0,37,0.00,,,0.00,0,Wunderground v.1.15,2013-03-01 07:31:00,
2013-03-01 00:36:00,28.4,6.0,30.33,NNE,20,0.0,0.0,38,0.00,,,0.00,0,Wunderground v.1.15,2013-03-01 07:36:00,
2013-03-01 00:41:00,29.2,6.1,30.33,NNE,20,0.0,0.0,37,0.00,,,0.00,0,Wunderground v.1.15,2013-03-01 07:41:00,
2013-03-01 00:46:00,30.2,7.6,30.32,NNE,20,0.0,0.0,38,0.00,,,0.00,0,Wunderground v.1.15,2013-03-01 07:46:00,
2013-03-01 00:51:00,32.2,8.2,30.31,NNE,20,0.0,0.0,36,0.00,,,0.00,0,Wunderground v.1.15,2013-03-01 07:51:00,
2013-03-01 01:01:00,31.9,7.3,30.30,NNE,20,0.0,0.0,35,0.00,,,0.00,0,Wunderground v.1.15,2013-03-01 08:01:00,
2013-03-01 01:06:00,30.7,6.9,30.31,NNE,20,0.0,0.0,36,0.00,,,0.00,0,Wunderground v.1.15,2013-03-01 08:06:00,
2013-03-01 01:11:00,30.1,7.5,30.31,NNE,20,0.0,0.0,38,0.00,,,0.00,0,Wunderground v.1.15,2013-03-01 08:11:00,
2013-03-01 01:16:00,30.3,7.1,30.31,NNE,20,0.0,0.0,37,0.00,,,0.00,0,Wunderground v.1.15,2013-03-01 08:16:00,
2013-03-01 01:21:00,28.9,5.8,30.32,NNE,20,0.0,0.0,37,0.00,,,0.00,0,Wunderground v.1.15,2013-03-01 08:21:00,
2013-03-01 01:31:00,26.4,5.3,30.33,NNE,20,0.0,0.0,40,0.00,,,0.00,0,Wunderground v.1.15,2013-03-01 08:31:00,
2013-03-01 01:36:00,25.7,5.2,30.33,NNE,20,0.0,0.0,41,0.00,,,0.00,0,Wunderground v.1.15,2013-03-01 08:36:00,
2013-03-01 01:46:00,27.0,7.4,30.33,NNE,20,0.0,0.0,43,0.00,,,0.00,0,Wunderground v.1.15,2013-03-01 08:46:00,
2013-03-01 01:51:00,27.9,8.3,30.32,NNE,20,0.0,0.0,43,0.00,,,0.00,0,Wunderground v.1.15,2013-03-01 08:51:00,
2013-03-01 01:56:00,28.2,6.9,30.32,NNE,20,0.0,0.0,40,0.00,,,0.00,0,Wunderground v.1.15,2013-03-01 08:56:00,
2013-03-01 02:01:00,26.8,6.2,30.32,NNE,20,0.0,0.0,41,0.00,,,0.00,0,Wunderground v.1.15,2013-03-01 09:01:00,
2013-03-01 02:06:00,26.8,6.7,30.32,NNE,20,0.0,0.0,42,0.00,,,0.00,0,Wunderground v.1.15,2013-03-01 09:06:00,
2013-03-01 02:11:00,26.7,5.6,30.32,NNE,20,0.0,0.0,40,0.00,,,0.00,0,Wunderground v.1.15,2013-03-01 09:11:00,
2013-03-01 02:16:00,26.4,5.8,30.33,NNE,20,0.0,0.0,41,0.00,,,0.00,0,Wunderground v.1.15,2013-03-01 09:16:00,
2013-03-01 02:26:00,27.2,6.6,30.32,NNE,20,0.0,0.0,41,0.00,,,0.00,0,Wunderground v.1.15,2013-03-01 09:26:00,
2013-03-01 02:36:00,27.5,6.8,30.32,NNE,20,0.0,0.0,41,0.00,,,0.00,0,Wunderground v.1.15,2013-03-01 09:36:00,
2013-03-01 02:41:00,27.9,7.7,30.31,NNE,20,0.0,0.0,42,0.00,,,0.00,0,Wunderground v.1.15,2013-03-01 09:41:00,
2013-03-01 02:46:00,27.4,7.3,30.31,NNE,20,0.0,0.0,42,0.00,,,0.00,0,Wunderground v.1.15,2013-03-01 09:46:00,
2013-03-01 02:56:00,27.0,6.9,30.31,NNE,20,0.0,0.0,42,0.00,,,0.00,0,Wunderground v.1.15,2013-03-01 09:56:00,
2013-03-01 03:06:00,25.8,6.9,30.31,NNE,20,0.0,0.0,44,0.00,,,0.00,0,Wunderground v.1.15,2013-03-01 10:06:00,
2013-03-01 03:11:00,25.8,6.9,30.31,NNE,20,0.0,0.0,44,0.00,,,0.00,0,Wunderground v.1.15,2013-03-01 10:11:00,
2013-03-01 03:21:00,24.5,6.6,30.32,NNE,20,0.0,0.0,46,0.00,,,0.00,0,Wunderground v.1.15,2013-03-01 10:21:00,
2013-03-01 03:26:00,25.6,7.7,30.31,NNE,20,0.0,0.0,46,0.00,,,0.00,0,Wunderground v.1.15,2013-03-01 10:26:00,
2013-03-01 03:36:00,27.4,8.8,30.31,NNE,20,0.0,0.0,45,0.00,,,0.00,0,Wunderground v.1.15,2013-03-01 10:36:00,
2013-03-01 03:41:00,27.6,8.5,30.30,NNE,20,0.0,0.0,44,0.00,,,0.00,0,Wunderground v.1.15,2013-03-01 10:41:00,
2013-03-01 03:51:00,26.9,7.9,30.30,NNE,20,0.0,0.0,44,0.00,,,0.00,0,Wunderground v.1.15,2013-03-01 10:51:00,
2013-03-01 04:01:00,24.9,7.0,30.31,NNE,20,0.0,0.0,46,0.00,,,0.00,0,Wunderground v.1.15,2013-03-01 11:01:00,
2013-03-01 04:11:00,24.4,5.6,30.31,NNE,20,0.0,0.0,44,0.00,,,0.00,0,Wunderground v.1.15,2013-03-01 11:11:00,
2013-03-01 04:16:00,23.5,6.2,30.32,NNE,20,0.0,0.0,47,0.00,,,0.00,0,Wunderground v.1.15,2013-03-01 11:16:00,
2013-03-01 04:21:00,23.6,6.8,30.32,NNE,20,0.0,0.0,48,0.00,,,0.00,0,Wunderground v.1.15,2013-03-01 11:21:00,
2013-03-01 04:31:00,23.9,6.6,30.32,NNE,20,0.0,0.0,47,0.00,,,0.00,0,Wunderground v.1.15,2013-03-01 11:31:00,
2013-03-01 04:36:00,23.7,5.4,30.32,NNE,20,0.0,0.0,45,0.00,,,0.00,0,Wunderground v.1.15,2013-03-01 11:36:00,
2013-03-01 04:41:00,21.7,4.1,30.33,NNE,20,0.0,0.0,46,0.00,,,0.00,0,Wunderground v.1.15,2013-03-01 11:41:00,
2013-03-01 04:51:00,20.2,4.1,30.34,NNE,20,0.0,0.0,49,0.00,,,0.00,0,Wunderground v.1.15,2013-03-01 11:51:00,
2013-03-01 04:56:00,20.3,5.0,30.33,NNE,20,0.0,0.0,51,0.00,,,0.00,0,Wunderground v.1.15,2013-03-01 11:56:00,
2013-03-01 05:06:00,22.2,6.8,30.34,NNE,20,0.0,0.0,51,0.00,,,0.00,0,Wunderground v.1.15,2013-03-01 12:06:00,
2013-03-01 05:16:00,22.8,6.5,30.34,NNE,20,0.0,0.0,49,0.00,,,0.00,0,Wunderground v.1.15,2013-03-01 12:16:00,
2013-03-01 05:21:00,23.1,6.3,30.34,NNE,20,0.0,0.0,48,0.00,,,0.00,0,Wunderground v.1.15,2013-03-01 12:21:00,
2013-03-01 05:26:00,22.3,5.1,30.35,NNE,20,0.0,0.0,47,0.00,,,0.00,0,Wunderground v.1.15,2013-03-01 12:26:00,
2013-03-01 05:36:00,23.8,7.4,30.34,NNE,20,0.0,0.0,49,0.00,,,0.00,0,Wunderground v.1.15,2013-03-01 12:36:00,
2013-03-01 05:41:00,24.5,7.1,30.34,NNE,20,0.0,0.0,47,0.00,,,0.00,0,Wunderground v.1.15,2013-03-01 12:41:00,
2013-03-01 05:51:00,22.4,5.2,30.36,NNE,20,0.0,0.0,47,0.00,,,0.00,0,Wunderground v.1.15,2013-03-01 12:51:00,
2013-03-01 05:56:00,22.3,6.0,30.36,NNE,20,0.0,0.0,49,0.00,,,0.00,0,Wunderground v.1.15,2013-03-01 12:56:00,
2013-03-01 06:01:00,22.3,6.0,30.37,NNE,20,0.0,0.0,49,0.00,,,0.00,0,Wunderground v.1.15,2013-03-01 13:01:00,
2013-03-01 06:11:00,22.0,6.2,30.41,NNE,20,0.0,0.0,50,0.00,,,0.00,0,Wunderground v.1.15,2013-03-01 13:11:00,
2013-03-01 06:21:00,22.4,7.0,30.42,NNE,20,0.0,0.0,51,0.00,,,0.00,0,Wunderground v.1.15,2013-03-01 13:21:00,
2013-03-01 06:26:00,22.0,6.2,30.42,NNE,20,0.0,0.0,50,0.00,,,0.00,0,Wunderground v.1.15,2013-03-01 13:26:00,
2013-03-01 06:31:00,20.9,5.2,30.42,NNE,20,0.0,0.0,50,0.00,,,0.00,0,Wunderground v.1.15,2013-03-01 13:31:00,
2013-03-01 06:41:00,20.4,5.5,30.42,NNE,20,0.0,0.0,52,0.00,,,0.00,0,Wunderground v.1.15,2013-03-01 13:41:00,
2013-03-01 06:51:00,20.9,6.0,30.42,NNE,20,0.0,0.0,52,0.00,,,0.00,7,Wunderground v.1.15,2013-03-01 13:51:00,
2013-03-01 07:01:00,22.9,7.0,30.42,NNE,20,0.0,0.0,50,0.00,,,0.00,14,Wunderground v.1.15,2013-03-01 14:01:00,
2013-03-01 07:06:00,23.8,7.8,30.45,NNE,20,0.0,0.0,50,0.00,,,0.00,18,Wunderground v.1.15,2013-03-01 14:06:00,
2013-03-01 07:16:00,28.1,9.5,30.43,NNE,20,0.0,0.0,45,0.00,,,0.00,35,Wunderground v.1.15,2013-03-01 14:16:00,
2013-03-01 07:21:00,30.0,9.6,30.42,NNE,20,0.0,0.0,42,0.00,,,0.00,47,Wunderground v.1.15,2013-03-01 14:21:00,
2013-03-01 07:31:00,33.1,10.2,30.40,NNE,20,0.0,0.0,38,0.00,,,0.00,81,Wunderground v.1.15,2013-03-01 14:31:00,
2013-03-01 07:41:00,36.5,10.7,30.38,NNE,20,0.0,0.0,34,0.00,,,0.00,123,Wunderground v.1.15,2013-03-01 14:41:00,
2013-03-01 07:51:00,39.8,10.8,30.37,NNE,18,0.0,2.0,30,0.00,,,0.00,172,Wunderground v.1.15,2013-03-01 14:51:00,
2013-03-01 08:01:00,42.7,11.0,30.36,North,5,2.0,7.0,27,0.00,,,0.00,218,Wunderground v.1.15,2013-03-01 15:01:00,
2013-03-01 08:06:00,44.3,11.5,30.35,North,355,3.0,7.0,26,0.00,,,0.00,243,Wunderground v.1.15,2013-03-01 15:06:00,
2013-03-01 08:16:00,46.6,10.7,30.34,North,350,2.0,6.0,23,0.00,,,0.00,283,Wunderground v.1.15,2013-03-01 15:16:00,
2013-03-01 08:21:00,47.2,10.2,30.34,NNW,338,3.0,3.0,22,0.00,,,0.00,304,Wunderground v.1.15,2013-03-01 15:21:00,
2013-03-01 08:26:00,47.9,9.8,30.33,NNW,338,2.0,3.0,21,0.00,,,0.00,323,Wunderground v.1.15,2013-03-01 15:26:00,
2013-03-01 08:36:00,43.3,11.5,30.35,NNW,346,1.0,2.0,27,0.00,,,0.00,362,Wunderground v.1.15,2013-03-01 15:36:00,
2013-03-01 08:41:00,44.0,12.1,30.34,NNW,346,1.0,1.0,27,0.00,,,0.00,380,Wunderground v.1.15,2013-03-01 15:41:00,
2013-03-01 08:46:00,45.1,13.1,30.34,NNW,347,0.0,1.0,27,0.00,,,0.00,399,Wunderground v.1.15,2013-03-01 15:46:00,
2013-03-01 08:51:00,45.7,12.7,30.34,NNW,348,0.0,0.0,26,0.00,,,0.00,418,Wunderground v.1.15,2013-03-01 15:51:00,
2013-03-01 09:01:00,46.5,11.6,30.34,NNW,348,0.0,0.0,24,0.00,,,0.00,457,Wunderground v.1.15,2013-03-01 16:01:00,
2013-03-01 09:06:00,47.6,11.6,30.33,NNW,347,0.0,0.0,23,0.00,,,0.00,473,Wunderground v.1.15,2013-03-01 16:06:00,
2013-03-01 09:11:00,48.6,12.4,30.33,NNW,347,0.0,0.0,23,0.00,,,0.00,494,Wunderground v.1.15,2013-03-01 16:11:00,
2013-03-01 09:21:00,49.8,12.4,30.33,NNW,347,0.0,0.0,22,0.00,,,0.00,526,Wunderground v.1.15,2013-03-01 16:21:00,
2013-03-01 09:31:00,50.8,11.1,30.32,NNW,348,0.0,0.0,20,0.00,,,0.00,561,Wunderground v.1.15,2013-03-01 16:31:00,
2013-03-01 09:41:00,51.7,10.7,30.32,NNW,348,0.0,0.0,19,0.00,,,0.00,592,Wunderground v.1.15,2013-03-01 16:41:00,
2013-03-01 09:46:00,51.8,11.9,30.32,NNW,348,0.0,0.0,20,0.00,,,0.00,608,Wunderground v.1.15,2013-03-01 16:46:00,
2013-03-01 09:56:00,52.9,11.7,30.31,NNW,348,0.0,1.0,19,0.00,,,0.00,636,Wunderground v.1.15,2013-03-01 16:56:00,
2013-03-01 10:06:00,54.6,11.9,30.33,NNW,348,0.0,0.0,18,0.00,,,0.00,668,Wunderground v.1.15,2013-03-01 17:06:00,
2013-03-01 10:16:00,55.9,14.2,30.32,NNW,348,1.0,1.0,19,0.00,,,0.00,691,Wunderground v.1.15,2013-03-01 17:16:00,
2013-03-01 10:26:00,55.4,12.5,30.33,NNW,348,1.0,1.0,18,0.00,,,0.00,717,Wunderground v.1.15,2013-03-01 17:26:00,
2013-03-01 10:31:00,56.0,13.0,30.33,NNW,348,0.0,0.0,18,0.00,,,0.00,729,Wunderground v.1.15,2013-03-01 17:31:00,
2013-03-01 10:36:00,57.6,14.3,30.31,NNW,348,0.0,2.0,18,0.00,,,0.00,742,Wunderground v.1.15,2013-03-01 17:36:00,
2013-03-01 10:41:00,57.5,13.0,30.31,NNW,347,1.0,3.0,17,0.00,,,0.00,752,Wunderground v.1.15,2013-03-01 17:41:00,
2013-03-01 10:46:00,58.6,13.9,30.31,NNW,348,1.0,3.0,17,0.00,,,0.00,761,Wunderground v.1.15,2013-03-01 17:46:00,
2013-03-01 10:51:00,58.1,12.1,30.31,NNW,348,1.0,1.0,16,0.00,,,0.00,775,Wunderground v.1.15,2013-03-01 17:51:00,
2013-03-01 11:01:00,60.9,14.3,30.30,North,10,2.0,2.0,16,0.00,,,0.00,795,Wunderground v.1.15,2013-03-01 18:01:00,
2013-03-01 11:11:00,60.5,14.0,30.32,North,5,1.0,1.0,16,0.00,,,0.00,810,Wunderground v.1.15,2013-03-01 18:11:00,
2013-03-01 11:21:00,63.2,16.2,30.31,NNE,33,5.0,5.0,16,0.00,,,0.00,826,Wunderground v.1.15,2013-03-01 18:21:00,
2013-03-01 11:31:00,62.5,15.6,30.32,ENE,62,8.0,8.0,16,0.00,,,0.00,840,Wunderground v.1.15,2013-03-01 18:31:00,
2013-03-01 11:36:00,62.3,15.5,30.32,NE,48,7.0,8.0,16,0.00,,,0.00,846,Wunderground v.1.15,2013-03-01 18:36:00,
2013-03-01 11:41:00,63.2,16.2,30.32,NE,39,6.0,7.0,16,0.00,,,0.00,851,Wunderground v.1.15,2013-03-01 18:41:00,
2013-03-01 11:51:00,63.0,16.0,30.31,ENE,61,3.0,5.0,16,0.00,,,0.00,861,Wunderground v.1.15,2013-03-01 18:51:00,
2013-03-01 11:56:00,64.2,17.0,30.30,NE,51,3.0,5.0,16,0.00,,,0.00,867,Wunderground v.1.15,2013-03-01 18:56:00,
2013-03-01 12:01:00,64.6,17.3,30.30,NE,50,4.0,4.0,16,0.00,,,0.00,870,Wunderground v.1.15,2013-03-01 19:01:00,
2013-03-01 12:06:00,64.9,16.1,30.29,NE,56,3.0,4.0,15,0.00,,,0.00,875,Wunderground v.1.15,2013-03-01 19:06:00,
2013-03-01 12:11:00,65.7,16.7,30.28,NE,47,3.0,3.0,15,0.00,,,0.00,877,Wunderground v.1.15,2013-03-01 19:11:00,
2013-03-01 12:21:00,65.9,16.9,30.27,ENE,73,4.0,4.0,15,0.00,,,0.00,884,Wunderground v.1.15,2013-03-01 19:21:00,
2013-03-01 12:31:00,66.1,17.0,30.26,East,81,4.0,4.0,15,0.00,,,0.00,882,Wunderground v.1.15,2013-03-01 19:31:00,
2013-03-01 12:36:00,66.3,15.6,30.26,ENE,75,3.0,4.0,14,0.00,,,0.00,886,Wunderground v.1.15,2013-03-01 19:36:00,
2013-03-01 12:41:00,67.8,16.8,30.25,NNE,31,3.0,4.0,14,0.00,,,0.00,886,Wunderground v.1.15,2013-03-01 19:41:00,
2013-03-01 12:51:00,66.5,15.8,30.25,North,360,4.0,5.0,14,0.00,,,0.00,881,Wunderground v.1.15,2013-03-01 19:51:00,
2013-03-01 12:56:00,66.8,16.0,30.25,NNW,336,5.0,5.0,14,0.00,,,0.00,881,Wunderground v.1.15,2013-03-01 19:56:00,
2013-03-01 13:01:00,66.8,16.0,30.26,NNW,343,4.0,4.0,14,0.00,,,0.00,877,Wunderground v.1.15,2013-03-01 20:01:00,
2013-03-01 13:06:00,66.3,15.6,30.27,NNW,343,1.0,4.0,14,0.00,,,0.00,877,Wunderground v.1.15,2013-03-01 20:06:00,
2013-03-01 13:16:00,67.2,16.3,30.25,NNW,344,3.0,5.0,14,0.00,,,0.00,870,Wunderground v.1.15,2013-03-01 20:16:00,
2013-03-01 13:26:00,67.6,14.9,30.25,NE,50,3.0,4.0,13,0.00,,,0.00,860,Wunderground v.1.15,2013-03-01 20:26:00,
2013-03-01 13:36:00,68.7,15.8,30.24,NNW,331,4.0,7.0,13,0.00,,,0.00,851,Wunderground v.1.15,2013-03-01 20:36:00,
2013-03-01 13:46:00,66.6,15.9,30.24,NE,37,3.0,5.0,14,0.00,,,0.00,838,Wunderground v.1.15,2013-03-01 20:46:00,
2013-03-01 13:56:00,67.4,14.8,30.24,NW,308,3.0,8.0,13,0.00,,,0.00,824,Wunderground v.1.15,2013-03-01 20:56:00,
2013-03-01 14:06:00,67.9,16.9,30.23,WNW,299,2.0,5.0,14,0.00,,,0.00,810,Wunderground v.1.15,2013-03-01 21:06:00,
2013-03-01 14:11:00,67.9,15.2,30.22,NW,305,2.0,2.0,13,0.00,,,0.00,798,Wunderground v.1.15,2013-03-01 21:11:00,
2013-03-01 14:21:00,70.0,16.8,30.21,NW,319,3.0,5.0,13,0.00,,,0.00,782,Wunderground v.1.15,2013-03-01 21:21:00,
2013-03-01 14:26:00,70.2,17.0,30.21,North,360,5.0,8.0,13,0.00,,,0.00,768,Wunderground v.1.15,2013-03-01 21:26:00,
2013-03-01 14:31:00,69.4,16.4,30.21,North,5,6.0,6.0,13,0.00,,,0.00,758,Wunderground v.1.15,2013-03-01 21:31:00,
2013-03-01 14:41:00,69.2,16.2,30.21,North,5,3.0,6.0,13,0.00,,,0.00,735,Wunderground v.1.15,2013-03-01 21:41:00,
2013-03-01 14:51:00,70.1,18.6,30.20,North,356,3.0,3.0,14,0.00,,,0.00,712,Wunderground v.1.15,2013-03-01 21:51:00,
2013-03-01 15:01:00,69.0,16.0,30.21,NNW,332,4.0,4.0,13,0.00,,,0.00,686,Wunderground v.1.15,2013-03-01 22:01:00,
2013-03-01 15:11:00,69.7,18.3,30.21,NNW,338,2.0,6.0,14,0.00,,,0.00,656,Wunderground v.1.15,2013-03-01 22:11:00,
2013-03-01 15:16:00,71.0,17.6,30.20,NNW,331,4.0,7.0,13,0.00,,,0.00,642,Wunderground v.1.15,2013-03-01 22:16:00,
2013-03-01 15:21:00,71.1,17.7,30.19,NNW,329,5.0,5.0,13,0.00,,,0.00,628,Wunderground v.1.15,2013-03-01 22:21:00,
2013-03-01 15:26:00,71.4,17.9,30.20,NNW,338,6.0,6.0,13,0.00,,,0.00,612,Wunderground v.1.15,2013-03-01 22:26:00,
2013-03-01 15:31:00,71.0,17.6,30.19,NNW,338,5.0,5.0,13,0.00,,,0.00,598,Wunderground v.1.15,2013-03-01 22:31:00,
2013-03-01 15:41:00,71.8,20.0,30.19,NE,43,4.0,6.0,14,0.00,,,0.00,566,Wunderground v.1.15,2013-03-01 22:41:00,
2013-03-01 15:51:00,71.3,19.6,30.19,ENE,58,5.0,9.0,14,0.00,,,0.00,533,Wunderground v.1.15,2013-03-01 22:51:00,
2013-03-01 15:56:00,72.1,18.5,30.19,NE,49,5.0,9.0,13,0.00,,,0.00,513,Wunderground v.1.15,2013-03-01 22:56:00,
2013-03-01 16:01:00,72.4,18.7,30.18,NE,37,5.0,6.0,13,0.00,,,0.00,499,Wunderground v.1.15,2013-03-01 23:01:00,
2013-03-01 16:06:00,71.7,18.2,30.21,NE,35,5.0,6.0,13,0.00,,,0.00,482,Wunderground v.1.15,2013-03-01 23:06:00,
2013-03-01 16:11:00,72.0,18.4,30.21,NNE,31,5.0,5.0,13,0.00,,,0.00,461,Wunderground v.1.15,2013-03-01 23:11:00,
2013-03-01 16:16:00,71.3,17.9,30.21,NNE,29,4.0,5.0,13,0.00,,,0.00,443,Wunderground v.1.15,2013-03-01 23:16:00,
2013-03-01 16:21:00,71.1,19.4,30.20,NNE,29,3.0,3.0,14,0.00,,,0.00,425,Wunderground v.1.15,2013-03-01 23:21:00,
2013-03-01 16:31:00,71.1,19.4,30.20,North,353,4.0,8.0,14,0.00,,,0.00,392,Wunderground v.1.15,2013-03-01 23:31:00,
2013-03-01 16:41:00,70.9,19.3,30.20,North,10,5.0,7.0,14,0.00,,,0.00,352,Wunderground v.1.15,2013-03-01 23:41:00,
2013-03-01 16:46:00,70.8,19.2,30.21,NNE,14,5.0,7.0,14,0.00,,,0.00,332,Wunderground v.1.15,2013-03-01 23:46:00,
2013-03-01 16:51:00,70.6,19.0,30.21,NNE,14,4.0,4.0,14,0.00,,,0.00,311,Wunderground v.1.15,2013-03-01 23:51:00,
2013-03-01 16:56:00,70.5,19.0,30.21,North,10,4.0,6.0,14,0.00,,,0.00,292,Wunderground v.1.15,2013-03-01 23:56:00,
2013-03-01 17:01:00,70.4,18.9,30.21,North,5,5.0,7.0,14,0.00,,,0.00,271,Wunderground v.1.15,2013-03-02 00:01:00,
2013-03-01 17:11:00,70.0,18.6,30.21,North,360,5.0,7.0,14,0.00,,,0.00,227,Wunderground v.1.15,2013-03-02 00:11:00,
2013-03-01 17:16:00,69.9,18.5,30.21,North,360,5.0,7.0,14,0.00,,,0.00,200,Wunderground v.1.15,2013-03-02 00:16:00,
2013-03-01 17:21:00,69.7,18.3,30.21,North,5,5.0,6.0,14,0.00,,,0.00,176,Wunderground v.1.15,2013-03-02 00:21:00,
2013-03-01 17:31:00,69.2,19.5,30.22,North,360,5.0,6.0,15,0.00,,,0.00,127,Wunderground v.1.15,2013-03-02 00:31:00,
2013-03-01 17:36:00,68.7,19.1,30.22,North,360,4.0,6.0,15,0.00,,,0.00,104,Wunderground v.1.15,2013-03-02 00:36:00,
2013-03-01 17:41:00,68.3,18.8,30.22,North,5,4.0,5.0,15,0.00,,,0.00,84,Wunderground v.1.15,2013-03-02 00:41:00,
2013-03-01 17:46:00,67.8,18.4,30.22,North,5,4.0,5.0,15,0.00,,,0.00,65,Wunderground v.1.15,2013-03-02 00:46:00,
2013-03-01 17:56:00,66.6,19.0,30.23,North,5,3.0,3.0,16,0.00,,,0.00,33,Wunderground v.1.15,2013-03-02 00:56:00,
2013-03-01 18:01:00,66.0,18.5,30.24,North,5,1.0,1.0,16,0.00,,,0.00,16,Wunderground v.1.15,2013-03-02 01:01:00,
2013-03-01 18:11:00,64.2,18.4,30.25,North,5,0.0,0.0,17,0.00,,,0.00,11,Wunderground v.1.15,2013-03-02 01:11:00,
2013-03-01 18:21:00,62.8,18.6,30.25,North,5,0.0,0.0,18,0.00,,,0.00,0,Wunderground v.1.15,2013-03-02 01:21:00,
2013-03-01 18:26:00,62.3,18.2,30.26,North,5,0.0,0.0,18,0.00,,,0.00,0,Wunderground v.1.15,2013-03-02 01:26:00,
2013-03-01 18:31:00,61.6,18.9,30.26,North,5,0.0,0.0,19,0.00,,,0.00,0,Wunderground v.1.15,2013-03-02 01:31:00,
2013-03-01 18:41:00,59.8,17.4,30.28,North,5,0.0,0.0,19,0.00,,,0.00,0,Wunderground v.1.15,2013-03-02 01:41:00,
2013-03-01 18:51:00,58.6,17.6,30.28,North,5,0.0,0.0,20,0.00,,,0.00,0,Wunderground v.1.15,2013-03-02 01:51:00,
2013-03-01 19:01:00,56.8,17.2,30.29,North,5,0.0,0.0,21,0.00,,,0.00,0,Wunderground v.1.15,2013-03-02 02:01:00,
2013-03-01 19:06:00,55.0,16.8,30.21,North,5,0.0,0.0,22,0.00,,,0.00,0,Wunderground v.1.15,2013-03-02 02:06:00,
2013-03-01 19:16:00,52.6,16.8,30.23,North,5,0.0,0.0,24,0.00,,,0.00,0,Wunderground v.1.15,2013-03-02 02:16:00,
2013-03-01 19:26:00,51.7,17.0,30.24,North,5,0.0,0.0,25,0.00,,,0.00,0,Wunderground v.1.15,2013-03-02 02:26:00,
2013-03-01 19:31:00,52.2,17.4,30.24,North,5,0.0,0.0,25,0.00,,,0.00,0,Wunderground v.1.15,2013-03-02 02:31:00,
2013-03-01 19:36:00,52.6,17.7,30.23,North,5,0.0,0.0,25,0.00,,,0.00,0,Wunderground v.1.15,2013-03-02 02:36:00,
2013-03-01 19:46:00,52.4,16.6,30.23,North,5,0.0,0.0,24,0.00,,,0.00,0,Wunderground v.1.15,2013-03-02 02:46:00,
2013-03-01 19:51:00,51.5,15.8,30.25,North,5,0.0,0.0,24,0.00,,,0.00,0,Wunderground v.1.15,2013-03-02 02:51:00,
2013-03-01 20:01:00,50.1,16.5,30.24,North,5,0.0,0.0,26,0.00,,,0.00,0,Wunderground v.1.15,2013-03-02 03:01:00,
2013-03-01 20:11:00,49.6,16.9,30.24,North,5,0.0,0.0,27,0.00,,,0.00,0,Wunderground v.1.15,2013-03-02 03:11:00,
2013-03-01 20:21:00,50.9,17.2,30.23,North,5,0.0,0.0,26,0.00,,,0.00,0,Wunderground v.1.15,2013-03-02 03:21:00,
2013-03-01 20:26:00,51.3,17.5,30.23,North,5,0.0,0.0,26,0.00,,,0.00,0,Wunderground v.1.15,2013-03-02 03:26:00,
2013-03-01 20:36:00,50.3,17.5,30.24,North,5,0.0,0.0,27,0.00,,,0.00,0,Wunderground v.1.15,2013-03-02 03:36:00,
2013-03-01 20:46:00,49.7,17.9,30.25,North,5,0.0,0.0,28,0.00,,,0.00,0,Wunderground v.1.15,2013-03-02 03:46:00,
2013-03-01 20:56:00,49.3,16.7,30.25,North,5,0.0,0.0,27,0.00,,,0.00,0,Wunderground v.1.15,2013-03-02 03:56:00,
2013-03-01 21:06:00,49.1,17.3,30.22,North,5,0.0,0.0,28,0.00,,,0.00,0,Wunderground v.1.15,2013-03-02 04:06:00,
2013-03-01 21:11:00,49.1,17.3,30.22,North,5,0.0,0.0,28,0.00,,,0.00,0,Wunderground v.1.15,2013-03-02 04:11:00,
2013-03-01 21:16:00,48.7,17.0,30.23,North,5,0.0,0.0,28,0.00,,,0.00,0,Wunderground v.1.15,2013-03-02 04:16:00,
2013-03-01 21:26:00,48.6,16.9,30.23,North,5,1.0,2.0,28,0.00,,,0.00,0,Wunderground v.1.15,2013-03-02 04:26:00,
2013-03-01 21:36:00,48.9,16.3,30.23,North,5,1.0,2.0,27,0.00,,,0.00,0,Wunderground v.1.15,2013-03-02 04:36:00,
2013-03-01 21:41:00,48.7,16.2,30.23,North,5,1.0,1.0,27,0.00,,,0.00,0,Wunderground v.1.15,2013-03-02 04:41:00,
2013-03-01 21:46:00,48.6,16.1,30.23,North,5,1.0,1.0,27,0.00,,,0.00,0,Wunderground v.1.15,2013-03-02 04:46:00,
2013-03-01 21:51:00,48.4,15.9,30.24,North,5,0.0,0.0,27,0.00,,,0.00,0,Wunderground v.1.15,2013-03-02 04:51:00,
2013-03-01 21:56:00,47.7,16.1,30.25,North,5,0.0,0.0,28,0.00,,,0.00,0,Wunderground v.1.15,2013-03-02 04:56:00,
2013-03-01 22:01:00,47.0,15.5,30.24,North,5,0.0,0.0,28,0.00,,,0.00,0,Wunderground v.1.15,2013-03-02 05:01:00,
2013-03-01 22:06:00,46.4,15.0,30.21,North,5,0.0,0.0,28,0.00,,,0.00,0,Wunderground v.1.15,2013-03-02 05:06:00,
2013-03-01 22:16:00,45.7,15.2,30.22,North,5,0.0,0.0,29,0.00,,,0.00,0,Wunderground v.1.15,2013-03-02 05:16:00,
2013-03-01 22:21:00,46.7,16.1,30.21,North,5,0.0,0.0,29,0.00,,,0.00,0,Wunderground v.1.15,2013-03-02 05:21:00,
2013-03-01 22:26:00,45.8,15.3,30.23,North,5,0.0,0.0,29,0.00,,,0.00,0,Wunderground v.1.15,2013-03-02 05:26:00,
2013-03-01 22:31:00,45.2,15.6,30.22,North,5,0.0,0.0,30,0.00,,,0.00,0,Wunderground v.1.15,2013-03-02 05:31:00,
2013-03-01 22:36:00,45.0,16.1,30.22,North,5,0.0,0.0,31,0.00,,,0.00,0,Wunderground v.1.15,2013-03-02 05:36:00,
2013-03-01 22:41:00,42.7,14.8,30.23,North,5,0.0,0.0,32,0.00,,,0.00,0,Wunderground v.1.15,2013-03-02 05:41:00,
2013-03-01 22:51:00,40.9,13.3,30.24,North,5,0.0,0.0,32,0.00,,,0.00,0,Wunderground v.1.15,2013-03-02 05:51:00,
2013-03-01 22:56:00,40.2,14.0,30.25,North,5,0.0,0.0,34,0.00,,,0.00,0,Wunderground v.1.15,2013-03-02 05:56:00,
2013-03-01 23:06:00,38.0,13.4,30.24,North,5,0.0,0.0,36,0.00,,,0.00,0,Wunderground v.1.15,2013-03-02 06:06:00,
2013-03-01 23:11:00,39.8,15.0,30.23,North,5,0.0,0.0,36,0.00,,,0.00,0,Wunderground v.1.15,2013-03-02 06:11:00,
2013-03-01 23:16:00,41.0,14.7,30.23,North,5,0.0,0.0,34,0.00,,,0.00,0,Wunderground v.1.15,2013-03-02 06:16:00,
2013-03-01 23:26:00,39.2,13.8,30.24,North,5,0.0,0.0,35,0.00,,,0.00,0,Wunderground v.1.15,2013-03-02 06:26:00,
2013-03-01 23:31:00,38.9,13.5,30.24,North,5,0.0,0.0,35,0.00,,,0.00,0,Wunderground v.1.15,2013-03-02 06:31:00,
2013-03-01 23:36:00,37.7,13.1,30.25,North,5,0.0,0.0,36,0.00,,,0.00,0,Wunderground v.1.15,2013-03-02 06:36:00,
2013-03-01 23:46:00,37.4,12.8,30.25,North,5,0.0,0.0,36,0.00,,,0.00,0,Wunderground v.1.15,2013-03-02 06:46:00,
2013-03-01 23:56:00,37.2,14.5,30.25,North,5,0.0,0.0,39,0.00,,,0.00,0,Wunderground v.1.15,2013-03-02 06:56:00,